Airfield :
LOGIN :

Register | Disclaimer

   EN    FR    IT 

 










Legend :    VFR   Marginal VFR   IFR   Intensive IFR   Very Intensive IFR
Visi :
Ceiling :
>= 8 km
>= 3000ft
5 to 8 km
1000 to 3000 ft
1500m to 5 km
500 to 1000 ft
800 to 1500m
200 to 500 ft
< 800m
< 200 ft
Symbols :   Thunderstorms  Fog  Heavy snow  Heavy precipitations  Wind > 20 kt
SIGMETs :     Misc.  Thunderstorms  Icing  Turbulence  Mountain Waves  Volcanic Ashes







- Airport Elevation : 41 ft


LIRE - Pratica di Mare Air Base Pomezia

CURRENT METAR :
  • 202255Z 35003KT 9999 FEW020 SCT040 15/14 Q1007 RMK BKN VIS MIN 9999 WIND THR13 36003KT WIND THR31 /////KT BLU

EXPIRED METARs :
  • 202155Z 33004KT 9999 -RA SCT025 BKN040 15/14 Q1007 RMK OVC VIS MIN 9999 WIND THR13 36004KT WIND THR31 /////KT BLU
  • 202055Z 33005KT 9999 -RA FEW015 SCT025 BKN050 15/14 Q1006 RMK BKN VIS MIN 9999 WIND THR13 35005KT WIND THR31 /////KT BLU

TAF TAF LIRE
Valid from the 20 at 21:00 until the 21 at 06:00 UTC


202000Z 2021/2106 30008KT 9999 SCT020 SCT050
No reported NOTAMs for that airfield.
1 SIGMET reported for the Roma FIR (LIRR) :
 
Severe turbulence
LIRR SIGMET 22 VALID 202130/202300 LIIB
LIRR ROMA FIR SEV TURB FCST E OF LINE N4125 E01422 - N3626 E01454 FL240/360 MOV E WKN=



MET'MAP, your aeronautical weather chart ! - Copyright ORBIFLY December 2007 - Disclaimer

ORBIFLY MET'MAP TEAM :

Programming & Development : Alexandra Zaïnal
Concept & Development : Baudouin d'Aumeries
Co-Development & Prog : Marc-Olivier Méhu
Technical & hardware support : Manuel Goepfert

Contact : metmap@orbifly.com




SOURCES & CREDITS :

   NOAA